Redby, Minnesota
Current Conditions -  °F | °C
As of 1:13 PM on Thursday 30 Oct 2014 (Local Time) from KVWU Reporting Station
Broken Clouds Broken Clouds  
Wind Chill: 32°   Ceiling: 3400
Heat Index: 39°   Visibility: 10mi
Dew Point: 32°   Wind: 10mph
Humidity: 75%   Direction: 310°NW
Pressure: 30.18"   Gusts: 16mph
Location:  47.88°N, 94.91°W
Report Text: KVWU 301813Z AUTO 31009G14KT 10SM BKN034 BKN041 04/00 A3018 RMK AO2
Loading
Personal Weather Stations






























Interactive Weather Map
Tropical Storm Tracking
New forecast layout! Learn more

10-Day Weather Forecast

Advertisements
Track Severe Weather on mobile